Time;durP1;ratioP1;P1;durP2;ratioP2;P2;SDS_P1;SDS_P2;PMS_P1;PMS_P2;Temp;Humidity;BMP_temperature;BMP_pressure;BME280_temperature;BME280_humidity;BME280_pressure;Samples;Min_cycle;Max_cycle;Signal;HPM_P1;HPM_P2
2022/04/06 00:02:18;;;;;;;8.93;3.93;;;;;;;12.06;nan;101126.91;5002838;28;20502;-90
2022/04/06 00:05:35;;;;;;;5.50;3.70;;;;;;;12.06;nan;101121.44;5018908;28;20435;-90
2022/04/06 00:08:03;;;;;;;5.40;3.87;;;;;;;12.00;nan;101123.03;5034617;28;20502;-90
2022/04/06 00:10:32;;;;;;;5.20;3.73;;;;;;;12.01;nan;101130.22;5002182;28;20821;-91
2022/04/06 00:12:59;;;;;;;6.50;3.37;;;;;;;12.01;nan;101123.91;5018549;28;20455;-89
2022/04/06 00:19:11;;;;;;;5.93;3.57;;;;;;;12.02;nan;101128.34;5037433;28;20423;-89
2022/04/06 00:21:40;;;;;;;11.27;4.53;;;;;;;12.02;nan;101134.66;5020132;28;20487;-91
2022/04/06 00:24:09;;;;;;;10.77;3.67;;;;;;;11.96;nan;101127.22;5003109;28;20493;-90
2022/04/06 00:26:40;;;;;;;7.93;3.60;;;;;;;12.01;nan;101129.38;5034402;28;20455;-89
2022/04/06 00:29:09;;;;;;;7.10;3.50;;;;;;;11.99;nan;101136.94;5036082;28;20527;-90
2022/04/06 00:31:37;;;;;;;5.63;3.30;;;;;;;11.98;nan;101124.28;5035165;28;20451;-91
2022/04/06 00:34:05;;;;;;;4.60;3.10;;;;;;;12.00;nan;101134.00;5036199;28;20517;-91
2022/04/06 00:36:34;;;;;;;4.67;3.40;;;;;;;12.01;nan;101137.59;5035945;28;20451;-89
2022/04/06 00:39:03;;;;;;;11.23;4.03;;;;;;;11.98;nan;101124.28;5017961;28;20443;-89
2022/04/06 00:41:30;;;;;;;6.20;4.97;;;;;;;11.99;nan;101137.78;5034232;28;20486;-91
2022/04/06 00:44:16;;;;;;;6.70;3.50;;;;;;;12.02;nan;101139.28;5018475;28;20447;-89
2022/04/06 00:46:45;;;;;;;6.40;2.80;;;;;;;11.98;nan;101135.22;5034134;28;20447;-90
2022/04/06 00:49:19;;;;;;;3.20;2.50;;;;;;;11.99;nan;101153.38;5033944;28;20828;-89
2022/04/06 00:51:53;;;;;;;5.03;2.70;;;;;;;11.94;nan;101147.63;5001863;28;20952;-91
2022/04/06 00:54:22;;;;;;;4.87;2.67;;;;;;;11.96;nan;101143.66;5018734;28;20450;-91
2022/04/06 00:56:52;;;;;;;3.90;2.67;;;;;;;11.97;nan;101150.81;5018588;28;20448;-89
2022/04/06 00:59:20;;;;;;;5.87;3.57;;;;;;;11.96;nan;101131.84;5018231;28;21007;-91
2022/04/06 01:01:49;;;;;;;3.27;2.87;;;;;;;11.92;nan;101130.56;5001778;28;20475;-90
2022/04/06 01:04:18;;;;;;;8.50;4.17;;;;;;;11.95;nan;101141.94;5002149;28;20455;-90
2022/04/06 01:06:50;;;;;;;8.63;3.60;;;;;;;11.93;nan;101140.47;5017555;28;20444;-91
2022/04/06 01:09:21;;;;;;;5.03;3.30;;;;;;;11.95;nan;101139.22;5001114;28;20455;-89
2022/04/06 01:11:50;;;;;;;4.90;3.10;;;;;;;11.93;nan;101157.72;5033851;28;21018;-90
2022/04/06 01:14:19;;;;;;;4.33;3.30;;;;;;;11.90;nan;101155.41;5017334;28;20989;-90
2022/04/06 01:16:58;;;;;;;7.53;3.00;;;;;;;11.91;nan;101156.25;5001436;28;20443;-89
2022/04/06 01:19:58;;;;;;;7.80;3.53;;;;;;;11.88;nan;101148.41;5018094;28;20447;-91
2022/04/06 01:22:26;;;;;;;4.60;3.00;;;;;;;11.87;nan;101152.19;5020934;28;20540;-89
2022/04/06 01:24:54;;;;;;;5.50;2.90;;;;;;;11.86;nan;101154.06;5001293;28;20463;-89
2022/04/06 01:27:21;;;;;;;5.23;3.30;;;;;;;11.89;nan;101150.09;5033837;28;20440;-90
2022/04/06 01:29:52;;;;;;;13.67;3.30;;;;;;;11.90;nan;101144.44;5001190;28;20460;-91
2022/04/06 01:32:22;;;;;;;5.57;2.70;;;;;;;11.92;nan;101141.50;5017662;28;20807;-91
2022/04/06 01:34:50;;;;;;;5.17;2.90;;;;;;;11.91;nan;101139.81;5017175;28;20847;-89
2022/04/06 01:37:18;;;;;;;5.43;3.20;;;;;;;11.96;nan;101145.53;5002056;28;20444;-89
2022/04/06 01:39:48;;;;;;;4.50;2.93;;;;;;;11.98;nan;101152.53;5017297;28;20450;-90
2022/04/06 01:42:17;;;;;;;6.97;3.90;;;;;;;11.95;nan;101152.06;5016827;28;20487;-90
2022/04/06 01:44:46;;;;;;;6.77;3.40;;;;;;;11.97;nan;101153.56;5033109;28;20497;-89
2022/04/06 01:47:15;;;;;;;7.10;4.27;;;;;;;11.96;nan;101148.28;5016698;28;20447;-90
2022/04/06 01:52:31;;;;;;;5.77;3.30;;;;;;;11.97;nan;101148.09;5032490;28;20516;-89
2022/04/06 01:55:03;;;;;;;4.50;2.73;;;;;;;11.86;nan;101132.16;5000207;28;20454;-90
2022/04/06 01:57:31;;;;;;;5.33;3.03;;;;;;;11.92;nan;101147.00;5016841;28;20439;-89
2022/04/06 02:00:01;;;;;;;7.10;3.13;;;;;;;11.94;nan;101161.31;5025291;28;20464;-89
2022/04/06 02:02:33;;;;;;;5.00;2.70;;;;;;;11.97;nan;101160.94;4996721;28;20476;-89
2022/04/06 02:05:01;;;;;;;6.13;2.57;;;;;;;11.96;nan;101153.75;4981510;28;20459;-90
2022/04/06 02:07:29;;;;;;;4.53;3.20;;;;;;;11.96;nan;101156.50;4980918;28;20981;-89
2022/04/06 02:10:00;;;;;;;6.30;3.73;;;;;;;11.95;nan;101152.06;4922152;29;20455;-89
2022/04/06 02:12:29;;;;;;;4.10;2.73;;;;;;;11.92;nan;101157.94;4922828;29;20459;-89
2022/04/06 02:14:57;;;;;;;6.67;3.60;;;;;;;11.91;nan;101156.25;4938134;29;20495;-89
2022/04/06 02:17:29;;;;;;;5.40;3.20;;;;;;;11.91;nan;101151.63;4953411;29;20454;-90
2022/04/06 02:19:57;;;;;;;4.93;3.23;;;;;;;11.94;nan;101161.31;4937792;29;20450;-91
2022/04/06 02:22:27;;;;;;;6.77;2.40;;;;;;;11.91;nan;101162.56;4937036;29;21040;-90
2022/04/06 02:24:55;;;;;;;10.70;3.03;;;;;;;11.90;nan;101162.75;4953652;29;20442;-91
2022/04/06 02:27:23;;;;;;;7.27;2.80;;;;;;;11.85;nan;101151.53;4934141;28;20440;-89
2022/04/06 02:29:51;;;;;;;8.80;2.63;;;;;;;11.85;nan;101162.47;5012630;28;20818;-91
2022/04/06 02:32:19;;;;;;;5.50;3.67;;;;;;;11.89;nan;101166.53;4980740;28;20440;-90
2022/04/06 02:34:53;;;;;;;5.17;2.90;;;;;;;11.87;nan;101164.00;4982170;28;20436;-90
2022/04/06 02:37:21;;;;;;;6.83;3.00;;;;;;;11.88;nan;101167.59;4980271;28;20460;-90
2022/04/06 02:39:49;;;;;;;8.43;2.90;;;;;;;11.87;nan;101166.72;5012721;28;20968;-90
2022/04/06 02:42:17;;;;;;;4.40;2.90;;;;;;;11.90;nan;101170.97;4980630;28;20473;-90
2022/04/06 02:44:45;;;;;;;6.80;3.47;;;;;;;11.88;nan;101167.59;4980402;28;20502;-89
2022/04/06 02:47:13;;;;;;;5.47;2.20;;;;;;;11.89;nan;101166.53;4996173;28;20452;-90
2022/04/06 02:49:40;;;;;;;4.87;3.07;;;;;;;11.87;nan;101174.09;4996164;28;20460;-90
2022/04/06 02:52:09;;;;;;;4.63;2.53;;;;;;;11.90;nan;101187.41;4979777;28;20460;-89
2022/04/06 02:54:36;;;;;;;4.40;2.87;;;;;;;11.82;nan;101174.66;4996327;28;20444;-89
2022/04/06 02:57:06;;;;;;;5.47;2.87;;;;;;;11.89;nan;101185.72;5012182;28;20482;-90
2022/04/06 02:59:34;;;;;;;4.87;2.77;;;;;;;11.86;nan;101189.69;4996099;28;20444;-89
2022/04/06 03:02:04;;;;;;;4.50;2.37;;;;;;;11.83;nan;101181.00;4996145;28;20510;-90
2022/04/06 03:04:34;;;;;;;6.17;2.50;;;;;;;11.88;nan;101198.56;5013300;28;20963;-89
2022/04/06 03:07:02;;;;;;;5.47;2.57;;;;;;;11.86;nan;101194.31;5016161;28;20452;-89
2022/04/06 03:09:36;;;;;;;3.80;2.37;;;;;;;11.80;nan;101184.97;5000055;28;20432;-90
2022/04/06 03:12:06;;;;;;;4.13;2.77;;;;;;;11.80;nan;101197.81;5015962;28;20456;-90
2022/04/06 03:14:34;;;;;;;4.50;2.70;;;;;;;11.81;nan;101205.81;4983879;28;20495;-89
2022/04/06 03:17:05;;;;;;;4.90;2.87;;;;;;;11.77;nan;101196.28;4983829;28;20444;-89
2022/04/06 03:19:33;;;;;;;4.80;2.67;;;;;;;11.75;nan;101201.91;4999645;28;20838;-90
2022/04/06 03:22:02;;;;;;;4.20;2.30;;;;;;;11.75;nan;101201.91;5015476;28;20838;-90
2022/04/06 03:24:30;;;;;;;3.30;2.40;;;;;;;11.75;nan;101201.06;4983792;28;20444;-89
2022/04/06 03:26:58;;;;;;;9.23;2.80;;;;;;;11.74;nan;101205.69;4983861;28;20448;-90
2022/04/06 03:29:29;;;;;;;4.23;2.83;;;;;;;11.75;nan;101210.13;4999652;28;20456;-90
2022/04/06 03:31:57;;;;;;;3.43;2.30;;;;;;;11.74;nan;101211.16;5015732;28;20502;-90
2022/04/06 03:34:24;;;;;;;6.97;3.10;;;;;;;11.65;nan;101204.13;4983817;28;20934;-90
2022/04/06 03:36:53;;;;;;;5.13;2.70;;;;;;;11.64;nan;101207.03;4983424;28;20947;-90
2022/04/06 03:39:22;;;;;;;5.60;2.23;;;;;;;11.60;nan;101206.56;4999429;28;20444;-89
2022/04/06 03:41:50;;;;;;;5.23;2.80;;;;;;;11.60;nan;101211.19;4983730;28;20448;-89
2022/04/06 03:44:23;;;;;;;3.30;2.57;;;;;;;11.58;nan;101214.13;4999144;28;20444;-90
2022/04/06 03:46:52;;;;;;;4.73;2.43;;;;;;;11.62;nan;101212.69;4999218;28;20459;-89
2022/04/06 03:49:20;;;;;;;5.17;2.47;;;;;;;11.65;nan;101225.16;4983337;28;20460;-90
2022/04/06 03:51:48;;;;;;;3.60;2.20;;;;;;;11.64;nan;101223.47;5016461;28;20428;-90
2022/04/06 03:54:18;;;;;;;5.67;2.00;;;;;;;11.65;nan;101223.28;4999281;28;20444;-90
2022/04/06 03:56:52;;;;;;;16.83;3.20;;;;;;;11.66;nan;101222.25;5015255;28;20440;-89
2022/04/06 03:59:19;;;;;;;7.07;2.50;;;;;;;11.66;nan;101230.47;4998971;28;20444;-89
2022/04/06 04:01:48;;;;;;;7.13;3.10;;;;;;;11.59;nan;101212.22;4995982;28;20448;-89
2022/04/06 04:04:16;;;;;;;3.60;2.70;;;;;;;11.69;nan;101237.44;5031240;28;20452;-88
2022/04/06 04:06:44;;;;;;;5.50;2.70;;;;;;;11.69;nan;101229.22;4982963;28;20448;-89
2022/04/06 04:09:14;;;;;;;2.90;2.13;;;;;;;11.64;nan;101232.53;5016038;28;20441;-89
2022/04/06 04:11:43;;;;;;;5.93;2.87;;;;;;;11.61;nan;101227.44;5031250;28;20525;-89
2022/04/06 04:14:12;;;;;;;4.50;2.37;;;;;;;11.63;nan;101233.56;4998722;28;20444;-89
2022/04/06 04:16:40;;;;;;;4.83;2.37;;;;;;;11.61;nan;101230.16;5014072;28;20456;-89
2022/04/06 04:19:08;;;;;;;2.90;2.00;;;;;;;11.64;nan;101242.63;5014616;28;20449;-89
2022/04/06 04:21:37;;;;;;;2.70;1.70;;;;;;;11.62;nan;101240.06;4997962;28;20472;-90
2022/04/06 04:24:08;;;;;;;12.70;3.30;;;;;;;11.63;nan;101247.25;5014456;28;20552;-89
2022/04/06 04:26:41;;;;;;;6.20;2.50;;;;;;;11.59;nan;101245.94;5030803;28;20449;-89
2022/04/06 04:29:11;;;;;;;3.77;2.60;;;;;;;11.61;nan;101249.31;4998349;28;20507;-89
2022/04/06 04:31:41;;;;;;;4.57;2.93;;;;;;;11.58;nan;101243.38;5014767;28;20444;-89
2022/04/06 04:34:10;;;;;;;7.60;2.50;;;;;;;11.54;nan;101237.44;4998307;28;20460;-89
2022/04/06 04:36:43;;;;;;;5.20;3.03;;;;;;;11.51;nan;101248.78;5014452;28;20529;-89
2022/04/06 04:39:19;;;;;;;3.90;2.50;;;;;;;11.48;nan;101242.81;5014420;28;20478;-89
2022/04/06 04:41:47;;;;;;;3.40;2.10;;;;;;;11.45;nan;101248.66;4982284;28;20444;-89
2022/04/06 04:44:25;;;;;;;4.13;2.77;;;;;;;11.37;nan;101246.84;4998334;28;20578;-89
2022/04/06 04:46:54;;;;;;;9.30;2.30;;;;;;;11.33;nan;101253.75;5015595;28;20428;-88
2022/04/06 04:49:23;;;;;;;5.80;2.53;;;;;;;11.30;nan;101245.91;4982361;28;20444;-88
2022/04/06 04:51:51;;;;;;;3.80;2.40;;;;;;;11.26;nan;101248.16;5013940;28;20449;-90
2022/04/06 04:54:24;;;;;;;5.93;2.50;;;;;;;11.20;nan;101250.78;5013961;28;20819;-90
2022/04/06 04:56:57;;;;;;;4.97;2.60;;;;;;;11.26;nan;101261.84;5013959;28;20453;-90
2022/04/06 04:59:25;;;;;;;4.93;2.20;;;;;;;11.20;nan;101251.63;4982047;28;20800;-89
2022/04/06 05:01:53;;;;;;;5.40;2.37;;;;;;;11.18;nan;101261.91;4981964;28;20460;-89
2022/04/06 05:04:21;;;;;;;2.80;1.97;;;;;;;11.18;nan;101263.78;5013815;28;21067;-89
2022/04/06 05:06:50;;;;;;;3.53;2.40;;;;;;;11.16;nan;101268.63;4997784;28;20455;-89
2022/04/06 05:09:18;;;;;;;3.93;2.77;;;;;;;11.02;nan;101241.03;4997919;28;20440;-90
2022/04/06 05:11:46;;;;;;;6.43;2.37;;;;;;;11.13;nan;101255.31;5013936;28;20440;-89
2022/04/06 05:14:16;;;;;;;3.30;2.30;;;;;;;11.05;nan;101254.34;4997588;28;20502;-89
2022/04/06 05:16:56;;;;;;;3.13;1.93;;;;;;;11.07;nan;101246.81;4981250;28;20464;-90
2022/04/06 05:19:24;;;;;;;4.67;2.30;;;;;;;11.09;nan;101260.31;4997528;28;20502;-89
2022/04/06 05:21:53;;;;;;;5.33;1.97;;;;;;;11.09;nan;101268.50;4958710;28;20551;-88
2022/04/06 05:24:23;;;;;;;3.20;2.13;;;;;;;11.05;nan;101265.28;4961980;28;20493;-89
2022/04/06 05:26:53;;;;;;;4.90;2.30;;;;;;;10.94;nan;101268.47;4962198;28;21021;-89
2022/04/06 05:29:21;;;;;;;4.03;2.40;;;;;;;10.81;nan;101260.00;4978928;28;20437;-89
2022/04/06 05:31:49;;;;;;;3.43;1.90;;;;;;;10.81;nan;101283.75;4947135;28;20860;-90
2022/04/06 05:34:23;;;;;;;2.60;2.10;;;;;;;10.76;nan;101280.75;4994819;28;20457;-89
2022/04/06 05:36:53;;;;;;;5.37;1.93;;;;;;;10.72;nan;101302.13;4977759;28;20453;-89
2022/04/06 05:39:23;;;;;;;4.50;2.73;;;;;;;10.66;nan;101300.09;4978003;28;20456;-89
2022/04/06 05:41:51;;;;;;;3.60;2.57;;;;;;;10.58;nan;101300.19;4977940;28;20452;-89
2022/04/06 05:44:26;;;;;;;4.97;3.17;;;;;;;10.54;nan;101304.28;4977537;28;20838;-89
2022/04/06 05:46:56;;;;;;;7.43;3.27;;;;;;;10.46;nan;101298.84;4977530;28;20448;-89
2022/04/06 05:49:32;;;;;;;3.53;2.20;;;;;;;10.45;nan;101316.28;4977491;28;20441;-89
2022/04/06 05:52:01;;;;;;;3.60;2.53;;;;;;;10.31;nan;101310.56;4977096;28;20461;-89
2022/04/06 05:54:29;;;;;;;3.20;2.03;;;;;;;10.30;nan;101325.25;4961866;28;20935;-89
2022/04/06 05:56:59;;;;;;;5.50;2.77;;;;;;;10.25;nan;101324.91;4961435;28;20437;-89
2022/04/06 05:59:27;;;;;;;7.40;2.90;;;;;;;10.17;nan;101324.09;4945945;28;20437;-90
2022/04/06 06:01:55;;;;;;;5.50;2.47;;;;;;;10.15;nan;101332.47;4991053;28;20448;-88
2022/04/06 06:04:22;;;;;;;6.50;2.50;;;;;;;10.08;nan;101334.19;4980738;28;20491;-90
2022/04/06 06:06:51;;;;;;;5.73;3.10;;;;;;;10.05;nan;101334.53;4980883;28;20935;-89
2022/04/06 06:09:29;;;;;;;7.00;2.43;;;;;;;10.03;nan;101351.09;4996590;28;20452;-89
2022/04/06 06:12:01;;;;;;;5.60;1.93;;;;;;;9.97;nan;101364.59;4996497;28;20452;-89
2022/04/06 06:14:31;;;;;;;5.77;2.27;;;;;;;9.89;nan;101357.28;4996590;28;20529;-89
2022/04/06 06:16:59;;;;;;;4.43;2.53;;;;;;;9.82;nan;101347.22;4996310;28;20444;-89
2022/04/06 06:19:27;;;;;;;5.00;3.07;;;;;;;9.93;nan;101368.69;4980615;28;20441;-89
2022/04/06 06:21:55;;;;;;;3.43;2.00;;;;;;;9.90;nan;101371.78;4913391;28;20462;-89
2022/04/06 06:24:24;;;;;;;3.13;2.00;;;;;;;9.91;nan;101384.41;4940750;28;20497;-89
2022/04/06 06:26:53;;;;;;;4.93;2.10;;;;;;;9.89;nan;101387.31;4925873;28;20443;-88
2022/04/06 06:29:23;;;;;;;4.90;2.93;;;;;;;9.85;nan;101393.28;4925585;28;20450;-89
2022/04/06 06:31:51;;;;;;;5.70;2.43;;;;;;;9.88;nan;101412.06;4956634;28;20485;-89
2022/04/06 06:34:18;;;;;;;4.70;2.87;;;;;;;9.89;nan;101413.75;4956551;28;20812;-89
2022/04/06 06:36:46;;;;;;;5.40;2.27;;;;;;;9.85;nan;101415.13;4956671;28;20488;-89
2022/04/06 06:39:16;;;;;;;9.00;2.93;;;;;;;9.79;nan;101413.09;4933940;28;20439;-88
2022/04/06 06:41:48;;;;;;;5.90;3.10;;;;;;;9.80;nan;101425.72;5015969;28;20497;-89
2022/04/06 06:44:17;;;;;;;8.83;4.20;;;;;;;9.72;nan;101417.53;5033183;28;20487;-89
2022/04/06 06:50:32;;;;;;;4.50;2.97;;;;;;;9.78;nan;101433.22;5033261;28;21059;-89
2022/04/06 06:53:02;;;;;;;5.33;2.73;;;;;;;9.83;nan;101442.59;4999768;28;20512;-89
2022/04/06 06:55:39;;;;;;;4.50;2.43;;;;;;;9.78;nan;101425.03;5015870;28;20889;-89
2022/04/06 06:58:07;;;;;;;5.50;2.90;;;;;;;9.84;nan;101432.53;4999589;28;20520;-89
2022/04/06 07:00:35;;;;;;;4.20;2.10;;;;;;;9.80;nan;101420.25;4999889;28;21025;-89
2022/04/06 07:03:02;;;;;;;3.60;2.07;;;;;;;9.98;nan;101445.50;4999548;28;20507;-89
2022/04/06 07:05:30;;;;;;;7.10;2.90;;;;;;;9.94;nan;101438.66;5033043;28;20439;-89
2022/04/06 07:08:01;;;;;;;7.03;3.33;;;;;;;9.97;nan;101436.44;4999631;28;20444;-88
2022/04/06 07:10:29;;;;;;;6.70;3.20;;;;;;;10.06;nan;101453.66;5015907;28;20443;-89
2022/04/06 07:12:59;;;;;;;6.83;3.13;;;;;;;10.12;nan;101463.91;4999311;28;20458;-89
2022/04/06 07:15:27;;;;;;;7.53;2.80;;;;;;;10.16;nan;101458.94;5031703;28;20448;-89
2022/04/06 07:17:57;;;;;;;9.27;2.90;;;;;;;10.26;nan;101465.09;5015744;28;20458;-89
2022/04/06 07:20:32;;;;;;;4.80;2.87;;;;;;;10.35;nan;101464.91;4998278;28;20447;-88
2022/04/06 07:23:07;;;;;;;6.20;2.93;;;;;;;10.43;nan;101461.28;4996026;28;20897;-89
2022/04/06 07:25:36;;;;;;;5.10;3.00;;;;;;;10.46;nan;101460.09;4996309;28;20440;-90
2022/04/06 07:28:04;;;;;;;3.10;1.93;;;;;;;10.59;nan;101476.78;4963989;28;20448;-89
2022/04/06 07:30:34;;;;;;;4.73;1.77;;;;;;;10.67;nan;101477.63;4979810;28;20506;-89
2022/04/06 07:33:02;;;;;;;2.93;1.67;;;;;;;10.73;nan;101481.53;4964173;28;20493;-90
2022/04/06 07:35:31;;;;;;;2.20;1.20;;;;;;;10.78;nan;101475.50;4963971;28;20453;-90
2022/04/06 07:38:01;;;;;;;1.57;1.10;;;;;;;10.97;nan;101489.59;4964499;28;20436;-90
2022/04/06 07:40:29;;;;;;;2.37;1.20;;;;;;;11.04;nan;101498.81;4964100;28;20807;-89
2022/04/06 07:42:59;;;;;;;2.10;1.10;;;;;;;11.06;nan;101488.56;4995690;28;20479;-90
2022/04/06 07:45:29;;;;;;;1.30;0.60;;;;;;;11.19;nan;101490.69;4996287;28;20463;-89
2022/04/06 07:47:59;;;;;;;6.13;0.93;;;;;;;11.22;nan;101484.00;4979695;28;20808;-89
2022/04/06 07:50:27;;;;;;;1.40;0.80;;;;;;;11.39;nan;101507.50;4963834;28;20449;-88
2022/04/06 07:52:55;;;;;;;1.70;0.87;;;;;;;11.45;nan;101501.31;4982878;28;20444;-88
2022/04/06 07:55:24;;;;;;;1.53;0.80;;;;;;;11.57;nan;101509.97;4967392;28;20938;-89
2022/04/06 07:57:52;;;;;;;1.10;0.60;;;;;;;11.62;nan;101513.88;4967145;28;20448;-89
2022/04/06 08:00:39;;;;;;;2.40;0.70;;;;;;;11.72;nan;101521.84;4967925;28;20445;-92
2022/04/06 08:03:07;;;;;;;2.03;0.70;;;;;;;11.72;nan;101519.97;4992814;28;20452;-89
2022/04/06 08:05:38;;;;;;;1.23;0.77;;;;;;;11.74;nan;101506.06;4983123;28;20943;-89
2022/04/06 08:08:07;;;;;;;2.80;0.80;;;;;;;11.90;nan;101527.06;4966977;28;20444;-90
2022/04/06 08:10:57;;;;;;;1.00;0.57;;;;;;;12.01;nan;101540.31;4966989;28;20456;-90
2022/04/06 08:13:34;;;;;;;1.70;0.60;;;;;;;11.97;nan;101528.84;4983048;28;20452;-89
2022/04/06 08:16:03;;;;;;;2.57;0.73;;;;;;;12.09;nan;101535.63;4998631;28;20450;-89
2022/04/06 08:18:32;;;;;;;2.57;0.80;;;;;;;12.20;nan;101550.75;4924134;29;20458;-89
2022/04/06 08:21:06;;;;;;;3.00;0.57;;;;;;;12.24;nan;101541.16;4826548;29;20516;-90
2022/04/06 08:23:36;;;;;;;1.77;0.60;;;;;;;12.37;nan;101552.31;4898258;29;20489;-89
2022/04/06 08:26:19;;;;;;;3.63;0.90;;;;;;;12.49;nan;101568.34;4883034;29;20857;-89
2022/04/06 08:28:49;;;;;;;2.40;0.63;;;;;;;12.60;nan;101556.91;4898452;29;20465;-89
2022/04/06 08:31:19;;;;;;;1.87;0.67;;;;;;;12.68;nan;101559.56;4882891;29;20960;-88
2022/04/06 08:33:47;;;;;;;1.17;0.50;;;;;;;12.73;nan;101546.97;4898213;29;20500;-88
2022/04/06 08:36:16;;;;;;;4.80;0.60;;;;;;;12.89;nan;101567.06;4913481;29;20439;-88
2022/04/06 08:38:46;;;;;;;5.43;0.57;;;;;;;12.87;nan;101569.97;4936386;28;20443;-89
2022/04/06 08:41:16;;;;;;;1.00;0.57;;;;;;;12.91;nan;101562.19;5034104;28;20891;-89
2022/04/06 08:43:44;;;;;;;1.10;0.50;;;;;;;12.99;nan;101568.47;5018020;28;20470;-90
2022/04/06 08:46:12;;;;;;;1.20;0.40;;;;;;;13.08;nan;101586.53;5017785;28;20448;-89
2022/04/06 08:48:40;;;;;;;7.33;0.70;;;;;;;13.17;nan;101591.97;5001524;28;20447;-89
2022/04/06 08:51:09;;;;;;;1.47;0.60;;;;;;;13.23;nan;101591.19;5001636;28;20960;-89
2022/04/06 08:53:44;;;;;;;1.13;0.50;;;;;;;13.28;nan;101599.69;5003095;28;20451;-89
2022/04/06 08:56:14;;;;;;;1.57;0.60;;;;;;;13.32;nan;101588.16;5017736;28;20457;-90
2022/04/06 08:58:43;;;;;;;0.93;0.40;;;;;;;13.44;nan;101596.78;5017634;28;20447;-89
2022/04/06 09:01:11;;;;;;;1.10;0.40;;;;;;;13.56;nan;101595.22;5017347;28;20459;-89
2022/04/06 09:03:39;;;;;;;1.00;0.57;;;;;;;13.63;nan;101587.06;5017041;28;20479;-89
2022/04/06 09:06:10;;;;;;;1.90;0.53;;;;;;;13.82;nan;101600.19;5001211;28;20811;-90
2022/04/06 09:08:43;;;;;;;2.60;0.90;;;;;;;13.91;nan;101600.91;5001506;28;20897;-89
2022/04/06 09:11:20;;;;;;;2.43;0.70;;;;;;;14.07;nan;101615.25;5017377;28;20451;-90
2022/04/06 09:13:58;;;;;;;0.90;0.40;;;;;;;14.22;nan;101617.94;5033694;28;20443;-90
2022/04/06 09:16:29;;;;;;;8.43;0.83;;;;;;;14.42;nan;101613.53;5026510;28;20462;-90
2022/04/06 09:19:07;;;;;;;5.47;0.80;;;;;;;14.56;nan;101627.38;5013540;28;20443;-90
2022/04/06 09:21:43;;;;;;;4.60;0.70;;;;;;;14.58;nan;101625.28;4997368;28;20476;-90
2022/04/06 09:24:19;;;;;;;2.20;0.50;;;;;;;14.58;nan;101625.28;4997303;28;20495;-90
2022/04/06 09:26:57;;;;;;;1.20;0.40;;;;;;;14.59;nan;101630.59;4997774;28;20452;-90
2022/04/06 09:29:26;;;;;;;0.97;0.57;;;;;;;14.68;nan;101631.28;4981421;28;20868;-89
2022/04/06 09:31:55;;;;;;;1.20;0.57;;;;;;;14.82;nan;101639.44;4997491;28;20451;-90
2022/04/06 09:34:37;;;;;;;2.30;0.50;;;;;;;14.83;nan;101634.78;4991671;28;20474;-89
2022/04/06 09:37:44;;;;;;;1.67;0.70;;;;;;;14.98;nan;101649.31;5001016;28;20447;-90
2022/04/06 09:40:12;;;;;;;3.33;0.67;;;;;;;15.02;nan;101656.09;4957461;28;20442;-90
2022/04/06 09:42:41;;;;;;;1.13;0.60;;;;;;;15.04;nan;101643.00;4957776;28;20840;-90
2022/04/06 09:47:58;;;;;;;1.77;0.77;;;;;;;14.88;nan;101659.81;4946642;28;20446;-91
2022/04/06 09:50:27;;;;;;;1.90;0.90;;;;;;;14.89;nan;101679.94;4973304;28;20990;-90
2022/04/06 09:52:59;;;;;;;3.33;1.00;;;;;;;14.88;nan;101681.84;4939937;28;20464;-89
2022/04/06 09:55:27;;;;;;;3.23;0.50;;;;;;;14.89;nan;101680.78;4915665;29;20451;-90
2022/04/06 09:57:58;;;;;;;2.57;0.80;;;;;;;14.92;nan;101672.13;4906532;29;20450;-90
2022/04/06 10:00:29;;;;;;;2.80;0.70;;;;;;;15.13;nan;101663.84;4942022;28;20438;-90
2022/04/06 10:03:07;;;;;;;1.00;0.70;;;;;;;15.19;nan;101663.03;4941406;28;20461;-90
2022/04/06 10:05:38;;;;;;;1.80;0.80;;;;;;;15.36;nan;101674.56;4926067;28;21016;-90
2022/04/06 10:08:09;;;;;;;5.43;0.80;;;;;;;15.33;nan;101676.88;4941104;28;20790;-89
2022/04/06 10:10:41;;;;;;;1.87;0.67;;;;;;;15.42;nan;101694.94;4940910;28;20497;-90
2022/04/06 10:13:11;;;;;;;1.57;0.80;;;;;;;15.48;nan;101694.97;4973170;28;20465;-89
2022/04/06 10:16:10;;;;;;;1.53;0.83;;;;;;;15.60;nan;101694.44;4959030;28;20448;-89
2022/04/06 10:18:39;;;;;;;2.13;1.10;;;;;;;15.71;nan;101704.91;4997070;28;20449;-89
2022/04/06 10:21:54;;;;;;;2.33;1.00;;;;;;;15.87;nan;101704.53;4995937;28;20471;-89
2022/04/06 10:24:55;;;;;;;3.93;1.00;;;;;;;15.89;nan;101713.47;4998388;28;21013;-89
2022/04/06 10:27:38;;;;;;;2.60;1.30;;;;;;;15.96;nan;101705.25;4999019;28;20435;-89
2022/04/06 10:30:22;;;;;;;1.87;1.10;;;;;;;16.07;nan;101705.47;4997020;28;20888;-89
2022/04/06 10:32:51;;;;;;;1.60;1.07;;;;;;;16.28;nan;101717.44;4981987;28;20448;-89
2022/04/06 10:35:22;;;;;;;2.20;1.30;;;;;;;16.37;nan;101711.50;4980587;28;20923;-90
2022/04/06 10:37:56;;;;;;;2.33;1.60;;;;;;;16.44;nan;101722.56;5012503;28;20497;-89
2022/04/06 10:40:25;;;;;;;2.90;1.30;;;;;;;16.53;nan;101724.94;5012026;28;20479;-89
2022/04/06 10:42:53;;;;;;;3.37;1.60;;;;;;;16.55;nan;101713.66;4996288;28;20859;-89
2022/04/06 10:45:29;;;;;;;2.80;1.40;;;;;;;16.78;nan;101718.84;4980238;28;20480;-89
2022/04/06 10:48:19;;;;;;;2.27;1.40;;;;;;;16.96;nan;101719.06;5021669;28;20451;-89
2022/04/06 10:50:51;;;;;;;3.10;1.30;;;;;;;17.13;nan;101711.19;5016509;28;20442;-89
2022/04/06 10:53:22;;;;;;;2.13;1.50;;;;;;;17.34;nan;101723.91;5031715;28;20455;-89
2022/04/06 10:56:12;;;;;;;6.10;1.20;;;;;;;17.44;nan;101713.28;5031993;28;20451;-89
2022/04/06 10:58:58;;;;;;;5.17;1.23;;;;;;;17.70;nan;101718.81;5016108;28;20451;-89
2022/04/06 11:01:29;;;;;;;2.57;1.37;;;;;;;17.74;nan;101720.03;5031369;28;20980;-90
2022/04/06 11:04:05;;;;;;;2.30;1.33;;;;;;;17.82;nan;101717.06;5000300;28;20450;-89
2022/04/06 11:06:45;;;;;;;5.10;1.93;;;;;;;17.95;nan;101725.28;4999580;28;20451;-90
2022/04/06 11:12:28;;;;;;;2.70;1.50;;;;;;;18.26;nan;101718.16;5032949;28;20504;-90
2022/04/06 11:14:59;;;;;;;1.63;1.10;;;;;;;18.29;nan;101717.69;5000993;28;20439;-90
2022/04/06 11:17:42;;;;;;;3.13;1.33;;;;;;;18.37;nan;101711.91;5031917;28;20455;-90
2022/04/06 11:20:12;;;;;;;8.60;1.40;;;;;;;18.37;nan;101719.34;5031831;28;20454;-90
2022/04/06 11:22:53;;;;;;;2.70;1.10;;;;;;;18.34;nan;101706.81;5031210;28;20475;-90
2022/04/06 11:25:22;;;;;;;2.80;1.00;;;;;;;18.41;nan;101710.41;5016445;28;20474;-90
2022/04/06 11:27:51;;;;;;;1.77;0.97;;;;;;;18.42;nan;101712.09;4928745;28;21064;-92
2022/04/06 11:30:21;;;;;;;6.20;2.10;;;;;;;18.54;nan;101699.22;4944366;28;20513;-92
2022/04/06 11:32:59;;;;;;;2.90;1.07;;;;;;;18.73;nan;101715.97;4944372;28;20450;-89
2022/04/06 11:35:28;;;;;;;4.77;1.20;;;;;;;18.76;nan;101707.22;4944004;28;20456;-89
2022/04/06 11:38:07;;;;;;;2.30;1.07;;;;;;;18.88;nan;101716.47;4959812;28;21014;-90
2022/04/06 11:40:42;;;;;;;2.43;1.27;;;;;;;18.97;nan;101712.38;4943864;28;20452;-89
2022/04/06 11:43:10;;;;;;;1.90;1.10;;;;;;;19.05;nan;101714.84;4959405;28;20445;-89
2022/04/06 11:45:44;;;;;;;2.20;0.93;;;;;;;19.00;nan;101686.16;4995735;28;20498;-90
2022/04/06 11:48:15;;;;;;;2.70;1.03;;;;;;;19.13;nan;101697.94;5034906;28;20964;-90
2022/04/06 11:50:44;;;;;;;2.20;1.03;;;;;;;19.21;nan;101708.75;5018920;28;20505;-90
2022/04/06 11:53:18;;;;;;;4.60;1.87;;;;;;;19.28;nan;101709.53;5002841;28;20501;-89
2022/04/06 11:55:51;;;;;;;4.73;1.37;;;;;;;19.30;nan;101682.44;5003826;28;20481;-89
2022/04/06 11:58:38;;;;;;;7.03;1.00;;;;;;;19.47;nan;101692.91;5018675;28;20454;-89
2022/04/06 12:01:15;;;;;;;3.23;1.10;;;;;;;19.52;nan;101685.66;5019236;28;20922;-90
2022/04/06 12:03:46;;;;;;;2.27;1.00;;;;;;;19.72;nan;101679.03;5019562;28;20451;-89
2022/04/06 12:06:15;;;;;;;4.57;1.20;;;;;;;19.86;nan;101678.63;5018923;28;20498;-89
2022/04/06 12:08:46;;;;;;;3.17;1.50;;;;;;;19.97;nan;101677.88;5018837;28;20444;-89
2022/04/06 12:11:24;;;;;;;2.80;1.17;;;;;;;20.08;nan;101683.69;5003115;28;20450;-89
2022/04/06 12:13:53;;;;;;;1.70;1.03;;;;;;;19.98;nan;101662.91;5035215;28;20447;-91
2022/04/06 12:16:24;;;;;;;3.83;1.43;;;;;;;20.02;nan;101674.34;5003271;28;20449;-90
2022/04/06 12:18:52;;;;;;;1.83;1.10;;;;;;;20.03;nan;101670.50;5034745;28;20459;-91